Time;durP1;ratioP1;P1;durP2;ratioP2;P2;SDS_P1;SDS_P2;PMS_P1;PMS_P2;Temp;Humidity;BMP_temperature;BMP_pressure;BME280_temperature;BME280_humidity;BME280_pressure;Samples;Min_cycle;Max_cycle;Signal;HPM_P1;HPM_P2
2023/07/11 00:01:11;;;;;;;24.00;9.90;;;;;;;26.87;49.68;98762.16;135649;1278;22527;-61
2023/07/11 00:04:14;;;;;;;24.40;11.10;;;;;;;26.77;49.72;98765.55;135625;1278;22553;-62
2023/07/11 00:07:16;;;;;;;27.40;11.60;;;;;;;26.82;49.89;98771.33;135614;1278;22531;-62
2023/07/11 00:10:19;;;;;;;28.00;11.80;;;;;;;26.74;50.32;98774.45;135676;1260;22612;-61
2023/07/11 00:13:21;;;;;;;27.20;11.10;;;;;;;26.82;50.00;98772.07;135631;1278;22560;-61
2023/07/11 00:16:23;;;;;;;26.10;11.30;;;;;;;26.91;49.69;98766.14;135655;1278;22549;-62
2023/07/11 00:19:26;;;;;;;26.60;10.50;;;;;;;27.05;49.84;98760.36;135623;1278;22517;-61
2023/07/11 00:22:28;;;;;;;24.70;10.40;;;;;;;26.91;50.58;98762.05;135668;1278;22545;-61
2023/07/11 00:25:31;;;;;;;26.30;10.80;;;;;;;27.22;49.20;98762.81;135585;1278;22583;-62
2023/07/11 00:28:33;;;;;;;26.50;10.40;;;;;;;26.94;49.93;98768.52;135588;1278;22538;-62
2023/07/11 00:31:35;;;;;;;25.70;10.80;;;;;;;26.69;50.56;98770.42;135667;1278;23769;-62
2023/07/11 00:34:38;;;;;;;28.20;11.70;;;;;;;26.70;50.72;98763.90;135634;1278;22542;-62
2023/07/11 00:37:40;;;;;;;26.70;11.00;;;;;;;26.53;51.59;98763.38;135643;1278;24192;-62
2023/07/11 00:40:43;;;;;;;29.30;11.80;;;;;;;26.78;51.76;98757.48;135642;1278;22569;-62
2023/07/11 00:43:45;;;;;;;27.70;12.10;;;;;;;26.66;52.61;98756.41;135641;1278;22533;-61
2023/07/11 00:46:47;;;;;;;26.70;11.40;;;;;;;26.89;52.34;98756.52;135646;1278;25226;-62
2023/07/11 00:49:50;;;;;;;27.00;12.20;;;;;;;26.76;52.75;98754.16;135584;1278;22533;-61
2023/07/11 00:52:53;;;;;;;27.30;12.40;;;;;;;26.61;53.39;98749.80;135646;1278;22555;-61
2023/07/11 00:55:55;;;;;;;26.30;11.20;;;;;;;26.72;53.52;98744.23;135642;1278;22523;-61
2023/07/11 00:58:57;;;;;;;26.00;11.30;;;;;;;26.75;53.82;98742.68;135654;1278;22643;-62
2023/07/11 01:02:00;;;;;;;26.00;11.60;;;;;;;27.10;52.84;98742.06;135650;1278;22543;-61
2023/07/11 01:05:02;;;;;;;27.30;11.80;;;;;;;26.77;54.29;98742.79;135638;1278;22532;-61
2023/07/11 01:08:05;;;;;;;28.10;11.80;;;;;;;26.74;54.19;98736.76;135653;1278;24072;-61
2023/07/11 01:11:07;;;;;;;25.20;11.20;;;;;;;26.70;54.97;98739.64;135663;1268;22566;-61
2023/07/11 01:14:10;;;;;;;25.40;11.10;;;;;;;27.12;54.53;98745.48;135656;1278;22539;-61
2023/07/11 01:17:12;;;;;;;25.60;11.30;;;;;;;26.92;56.33;98746.10;135634;1272;22636;-61
2023/07/11 01:20:14;;;;;;;28.40;11.60;;;;;;;27.05;55.63;98744.42;135621;1278;22543;-61
2023/07/11 01:23:17;;;;;;;25.30;11.40;;;;;;;27.12;56.13;98748.75;135677;1278;22561;-61
2023/07/11 01:26:19;;;;;;;25.70;11.40;;;;;;;27.05;56.37;98741.02;135666;1278;22545;-62
2023/07/11 01:29:22;;;;;;;24.30;10.70;;;;;;;27.11;56.14;98742.58;135684;1278;22550;-61
2023/07/11 01:32:24;;;;;;;25.00;10.80;;;;;;;27.12;56.38;98737.27;135681;1278;22532;-61
2023/07/11 01:35:27;;;;;;;25.60;11.30;;;;;;;26.97;57.66;98735.95;135676;1278;22556;-61
2023/07/11 01:38:29;;;;;;;25.60;11.00;;;;;;;27.15;56.81;98738.08;135674;1278;22660;-61
2023/07/11 01:41:31;;;;;;;28.30;11.40;;;;;;;27.12;57.18;98743.20;135664;1259;22539;-61
2023/07/11 01:44:34;;;;;;;27.60;11.30;;;;;;;27.00;57.63;98742.87;135669;1278;22541;-61
2023/07/11 01:47:36;;;;;;;27.10;10.70;;;;;;;26.99;57.79;98746.72;135681;1278;22531;-61
2023/07/11 01:50:39;;;;;;;25.40;11.00;;;;;;;26.61;59.51;98742.64;135662;1278;22554;-62
2023/07/11 01:53:41;;;;;;;24.60;11.10;;;;;;;26.58;59.78;98741.92;135657;1278;22570;-63
2023/07/11 01:56:43;;;;;;;26.00;11.10;;;;;;;26.64;59.99;98748.88;135681;1278;22552;-62
2023/07/11 01:59:46;;;;;;;25.00;10.70;;;;;;;26.63;59.48;98753.44;135692;1278;22639;-62
2023/07/11 02:02:48;;;;;;;24.30;11.50;;;;;;;26.37;60.82;98751.85;135652;1278;22521;-62
2023/07/11 02:05:51;;;;;;;24.30;10.40;;;;;;;26.37;61.30;98758.07;135663;1259;22524;-62
2023/07/11 02:08:53;;;;;;;24.50;10.50;;;;;;;26.42;60.85;98755.86;135698;1278;22547;-62
2023/07/11 02:11:56;;;;;;;25.30;10.60;;;;;;;26.60;60.73;98756.06;135653;1278;22568;-62
2023/07/11 02:14:58;;;;;;;22.70;10.10;;;;;;;26.47;61.23;98751.30;135665;1278;22542;-62
2023/07/11 02:18:00;;;;;;;25.60;10.20;;;;;;;26.63;60.37;98758.51;135642;1278;22556;-63
2023/07/11 02:21:03;;;;;;;29.30;10.50;;;;;;;26.90;59.60;98761.48;135695;1278;22993;-62
2023/07/11 02:24:05;;;;;;;26.00;11.00;;;;;;;26.96;59.40;98760.66;135667;1278;22776;-62
2023/07/11 02:27:08;;;;;;;26.40;11.40;;;;;;;27.21;58.73;98771.73;135671;1278;24258;-62
2023/07/11 02:30:10;;;;;;;23.00;10.30;;;;;;;27.24;58.74;98771.27;135663;1278;22524;-63
2023/07/11 02:33:12;;;;;;;25.30;11.00;;;;;;;27.22;58.89;98773.17;135704;1278;22537;-62
2023/07/11 02:36:15;;;;;;;23.30;10.60;;;;;;;27.06;60.00;98781.06;135679;1278;24370;-62
2023/07/11 02:39:17;;;;;;;23.10;11.10;;;;;;;27.03;60.13;98779.48;135690;1278;22540;-62
2023/07/11 02:42:20;;;;;;;24.30;11.20;;;;;;;27.12;60.09;98784.64;135713;1278;22541;-62
2023/07/11 02:45:22;;;;;;;24.70;10.90;;;;;;;27.02;60.49;98786.65;135686;1278;25376;-61
2023/07/11 02:48:24;;;;;;;23.70;10.90;;;;;;;27.36;59.28;98788.52;135703;1278;22524;-61
2023/07/11 02:51:27;;;;;;;26.80;12.20;;;;;;;27.28;59.62;98787.74;135682;1278;22532;-61
2023/07/11 02:54:29;;;;;;;24.10;11.20;;;;;;;27.15;60.39;98797.41;135697;1278;24050;-61
2023/07/11 02:57:31;;;;;;;25.70;11.30;;;;;;;27.53;58.98;98794.93;135673;1278;23698;-61
2023/07/11 03:00:34;;;;;;;25.40;11.40;;;;;;;27.55;58.40;98797.80;135675;1278;22553;-61
2023/07/11 03:03:39;;;;;;;26.50;12.40;;;;;;;27.52;58.84;98796.98;135677;1267;22538;-62
2023/07/11 03:06:42;;;;;;;25.70;12.00;;;;;;;27.46;58.99;98802.83;135734;1278;22550;-61
2023/07/11 03:09:44;;;;;;;24.50;11.30;;;;;;;27.65;57.98;98793.83;135707;1278;22538;-62
2023/07/11 03:12:46;;;;;;;25.60;11.60;;;;;;;27.50;58.48;98798.55;135679;1278;22643;-62
2023/07/11 03:15:49;;;;;;;23.80;10.80;;;;;;;27.44;58.49;98810.11;135655;1278;22553;-62
2023/07/11 03:18:51;;;;;;;24.80;11.20;;;;;;;27.42;58.42;98803.02;135644;1278;22576;-63
2023/07/11 03:21:54;;;;;;;24.30;11.20;;;;;;;27.32;58.73;98797.85;135680;1278;22549;-63
2023/07/11 03:24:56;;;;;;;24.70;10.80;;;;;;;27.19;59.28;98801.28;135643;1278;22541;-62
2023/07/11 03:27:58;;;;;;;26.20;10.70;;;;;;;27.12;59.42;98806.92;135763;1274;24316;-62
2023/07/11 03:31:01;;;;;;;24.90;10.30;;;;;;;27.11;59.41;98806.52;135768;1277;25306;-62
2023/07/11 03:34:03;;;;;;;25.00;10.50;;;;;;;27.54;57.77;98804.15;135773;1277;25351;-62
2023/07/11 03:37:06;;;;;;;25.40;10.70;;;;;;;27.63;57.20;98815.85;135792;1277;22540;-61
2023/07/11 03:40:08;;;;;;;24.40;10.50;;;;;;;27.72;56.73;98810.17;135783;1277;23712;-61
2023/07/11 03:43:11;;;;;;;25.10;10.40;;;;;;;27.66;56.17;98820.08;135777;1278;22631;-62
2023/07/11 03:46:14;;;;;;;23.50;10.70;;;;;;;27.90;55.41;98810.37;135774;1277;22556;-61
2023/07/11 03:49:16;;;;;;;22.40;10.30;;;;;;;28.15;54.42;98810.81;135795;1256;22646;-61
2023/07/11 03:52:19;;;;;;;23.00;10.10;;;;;;;27.92;55.23;98805.15;135686;1277;22814;-62
2023/07/11 03:55:21;;;;;;;25.10;10.40;;;;;;;27.73;55.73;98811.79;135809;1256;22533;-62
2023/07/11 03:58:24;;;;;;;23.00;9.90;;;;;;;27.42;57.01;98812.34;135805;1278;22542;-62
2023/07/11 04:01:26;;;;;;;24.70;10.20;;;;;;;27.66;56.13;98809.25;135803;1277;22539;-62
2023/07/11 04:04:29;;;;;;;25.50;10.00;;;;;;;27.75;55.88;98805.67;135768;1277;22548;-62
2023/07/11 04:07:31;;;;;;;23.20;10.00;;;;;;;27.88;55.65;98801.70;135699;1278;22566;-62
2023/07/11 04:10:34;;;;;;;24.10;10.00;;;;;;;27.83;55.28;98811.70;135647;1278;24193;-62
2023/07/11 04:13:36;;;;;;;23.50;10.80;;;;;;;27.70;55.60;98813.08;135676;1278;22532;-63
2023/07/11 04:16:39;;;;;;;25.90;12.20;;;;;;;27.78;55.15;98816.90;135737;1278;22546;-63
2023/07/11 04:19:41;;;;;;;25.00;11.90;;;;;;;27.77;55.04;98821.88;135753;1278;22553;-62
2023/07/11 04:22:43;;;;;;;27.30;11.30;;;;;;;27.85;54.53;98823.34;135703;1278;24044;-63
2023/07/11 04:25:46;;;;;;;27.70;10.90;;;;;;;27.69;54.53;98832.77;135613;1278;22660;-62
2023/07/11 04:28:48;;;;;;;24.60;9.90;;;;;;;27.52;54.38;98837.98;135724;1278;22568;-62
2023/07/11 04:31:50;;;;;;;23.40;10.00;;;;;;;27.25;54.93;98833.57;135743;1270;25474;-62
2023/07/11 04:34:53;;;;;;;22.40;9.10;;;;;;;27.66;53.82;98829.40;135722;1270;22736;-62
2023/07/11 04:37:56;;;;;;;23.60;9.70;;;;;;;27.75;53.38;98835.80;135738;1270;22554;-62
2023/07/11 04:40:58;;;;;;;25.30;8.70;;;;;;;27.90;53.04;98829.20;135707;1270;22550;-62
2023/07/11 04:44:00;;;;;;;21.50;8.30;;;;;;;28.13;52.60;98830.88;135760;1273;22653;-62
2023/07/11 04:47:03;;;;;;;21.80;8.30;;;;;;;28.19;52.23;98835.95;135662;1273;22548;-61
2023/07/11 04:50:05;;;;;;;24.70;9.20;;;;;;;28.16;52.60;98838.92;135733;1270;22565;-61
2023/07/11 04:53:08;;;;;;;23.30;9.50;;;;;;;28.43;51.88;98835.77;135695;1270;22527;-61
2023/07/11 04:56:11;;;;;;;22.80;10.10;;;;;;;28.38;51.46;98834.81;135745;1270;22589;-62
2023/07/11 04:59:13;;;;;;;25.10;10.60;;;;;;;28.26;51.11;98844.62;135697;1271;23334;-61
2023/07/11 05:02:16;;;;;;;22.20;9.80;;;;;;;28.16;51.44;98847.98;135737;1271;22534;-63
2023/07/11 05:05:19;;;;;;;23.30;10.40;;;;;;;28.36;50.81;98852.66;135728;1270;22551;-62
2023/07/11 05:08:21;;;;;;;22.10;10.60;;;;;;;28.46;50.47;98848.58;135720;1270;22573;-63
2023/07/11 05:11:24;;;;;;;23.70;9.80;;;;;;;28.47;50.54;98850.41;135687;1273;22550;-63
2023/07/11 05:14:27;;;;;;;22.90;9.60;;;;;;;28.53;50.81;98851.94;135725;1278;22546;-62
2023/07/11 05:17:29;;;;;;;24.80;9.60;;;;;;;28.80;49.98;98852.62;135758;1278;22550;-63
2023/07/11 05:20:32;;;;;;;24.20;11.50;;;;;;;28.72;50.01;98859.11;135707;1278;22532;-63
2023/07/11 05:23:34;;;;;;;25.70;12.10;;;;;;;28.28;49.74;98865.65;135713;1270;22560;-63
2023/07/11 05:26:37;;;;;;;24.30;12.90;;;;;;;28.36;49.83;98880.34;135702;1273;22636;-62
2023/07/11 05:29:39;;;;;;;28.00;14.10;;;;;;;27.83;50.18;98901.81;135693;1257;25055;-62
2023/07/11 05:32:41;;;;;;;26.00;15.00;;;;;;;27.30;51.85;98892.90;135663;1277;22531;-62
2023/07/11 05:36:01;;;;;;;28.70;19.10;;;;;;;27.44;51.58;98892.86;135605;1277;22559;-62
2023/07/11 05:39:04;;;;;;;29.10;17.50;;;;;;;27.74;50.42;98892.51;135789;1277;22542;-62
2023/07/11 05:42:06;;;;;;;27.80;16.20;;;;;;;27.97;49.99;98895.91;135739;1277;22551;-62
2023/07/11 05:45:09;;;;;;;29.60;16.60;;;;;;;28.04;49.76;98896.73;135781;1260;22593;-62
2023/07/11 05:48:11;;;;;;;24.70;12.80;;;;;;;28.50;48.82;98894.69;135785;1277;22554;-62
2023/07/11 05:51:14;;;;;;;26.10;14.50;;;;;;;28.72;48.48;98902.13;135793;1277;22527;-62
2023/07/11 05:54:16;;;;;;;27.50;17.20;;;;;;;28.68;47.95;98906.31;135775;1277;22561;-61
2023/07/11 05:57:19;;;;;;;28.30;17.80;;;;;;;28.68;47.79;98907.68;135767;1277;25472;-62
2023/07/11 06:00:21;;;;;;;29.00;16.30;;;;;;;28.56;48.27;98908.42;135765;1277;22524;-62
2023/07/11 06:03:24;;;;;;;23.90;10.80;;;;;;;28.33;49.13;98916.84;135794;1260;22526;-62
2023/07/11 06:06:26;;;;;;;25.50;12.00;;;;;;;27.54;51.17;98922.30;135777;1277;22647;-62
2023/07/11 06:09:28;;;;;;;24.90;12.30;;;;;;;27.33;51.78;98927.85;135715;1277;22969;-61
2023/07/11 06:12:31;;;;;;;26.10;14.20;;;;;;;27.28;51.96;98925.59;135711;1277;22535;-63
2023/07/11 06:15:33;;;;;;;26.80;13.30;;;;;;;27.63;50.83;98917.25;135772;1254;22517;-62
2023/07/11 06:18:36;;;;;;;24.20;12.60;;;;;;;27.72;50.26;98924.20;135761;1277;25598;-62
2023/07/11 06:21:38;;;;;;;28.20;17.70;;;;;;;27.69;49.99;98931.20;135793;1256;22533;-62
2023/07/11 06:24:41;;;;;;;31.50;18.30;;;;;;;27.75;49.48;98924.95;135787;1277;22561;-61
2023/07/11 06:27:43;;;;;;;29.20;18.20;;;;;;;27.61;49.31;98930.17;135806;1277;22600;-62
2023/07/11 06:30:45;;;;;;;29.00;18.90;;;;;;;27.55;49.58;98930.91;135800;1277;25329;-61
2023/07/11 06:33:50;;;;;;;30.30;18.00;;;;;;;27.67;49.37;98930.57;135773;1277;22524;-61
2023/07/11 06:36:52;;;;;;;30.50;18.70;;;;;;;27.78;49.12;98931.55;135748;1277;22542;-61
2023/07/11 06:39:54;;;;;;;34.60;21.50;;;;;;;27.82;48.88;98927.39;135750;1258;22644;-62
2023/07/11 06:42:57;;;;;;;37.70;22.40;;;;;;;27.69;48.52;98928.59;133962;1257;1003855;-62
2023/07/11 06:46:00;;;;;;;34.40;21.90;;;;;;;27.75;48.63;98928.35;67829;1277;1015579;-62
2023/07/11 06:49:02;;;;;;;31.60;19.50;;;;;;;27.69;48.58;98924.89;67857;1277;1016426;-62
2023/07/11 06:52:05;;;;;;;32.40;18.80;;;;;;;27.89;48.51;98927.05;67880;1277;1016437;-62
2023/07/11 06:55:07;;;;;;;30.30;18.30;;;;;;;28.05;48.24;98931.56;67889;1277;1018618;-62
2023/07/11 06:58:10;;;;;;;30.70;18.90;;;;;;;27.87;48.20;98936.85;67872;1277;1016058;-62
2023/07/11 07:01:12;;;;;;;29.20;17.40;;;;;;;28.02;48.26;98935.71;67806;1262;1016529;-63
2023/07/11 07:04:14;;;;;;;29.00;17.50;;;;;;;28.02;48.57;98936.48;67809;1277;1017213;-62
2023/07/11 07:07:19;;;;;;;29.90;17.70;;;;;;;28.25;47.70;98941.27;67858;1277;1016448;-63
2023/07/11 07:10:21;;;;;;;37.90;17.80;;;;;;;28.32;46.95;98947.17;67874;1277;1016395;-63
2023/07/11 07:13:24;;;;;;;31.10;16.40;;;;;;;28.46;46.65;98945.35;67847;1277;1016462;-62
2023/07/11 07:16:28;;;;;;;34.60;17.60;;;;;;;28.56;46.75;98942.58;67847;1254;1016253;-62
2023/07/11 07:19:31;;;;;;;34.30;19.20;;;;;;;28.75;45.84;98948.36;67860;1277;1016045;-62
2023/07/11 07:22:33;;;;;;;30.30;18.90;;;;;;;28.72;45.51;98945.84;67881;1277;1017396;-62
2023/07/11 07:25:36;;;;;;;35.90;23.80;;;;;;;28.53;45.71;98947.52;67885;1277;1018147;-62
2023/07/11 07:28:38;;;;;;;39.50;20.60;;;;;;;29.07;44.74;98944.92;67826;1277;1016475;-63
2023/07/11 07:31:40;;;;;;;31.40;21.50;;;;;;;29.48;44.25;98944.84;67847;1277;1016484;-63
2023/07/11 07:34:43;;;;;;;29.40;20.30;;;;;;;29.62;43.81;98941.98;67891;1277;1015924;-62
2023/07/11 07:37:45;;;;;;;30.50;20.80;;;;;;;29.78;43.52;98940.08;67864;1277;1016412;-62
2023/07/11 07:40:47;;;;;;;30.00;19.50;;;;;;;30.04;43.41;98939.17;67861;1277;1016347;-63
2023/07/11 07:43:50;;;;;;;32.70;19.40;;;;;;;30.33;41.94;98943.23;67873;1277;1016087;-63
2023/07/11 07:46:52;;;;;;;29.60;18.40;;;;;;;30.42;41.96;98946.66;67822;1277;1016272;-63
2023/07/11 07:49:55;;;;;;;32.20;20.20;;;;;;;30.42;41.99;98947.77;67822;1277;1016977;-63
2023/07/11 07:52:57;;;;;;;32.30;20.70;;;;;;;30.45;41.72;98952.19;67879;1277;1016423;-63
2023/07/11 07:55:59;;;;;;;30.70;21.80;;;;;;;30.58;41.61;98948.67;67878;1277;1016944;-63
2023/07/11 07:59:02;;;;;;;32.00;21.60;;;;;;;30.54;41.52;98957.78;67909;1277;1016192;-63
2023/07/11 08:02:04;;;;;;;30.30;20.50;;;;;;;30.69;41.46;98959.48;67729;1277;1016724;-63
2023/07/11 08:05:07;;;;;;;34.80;23.00;;;;;;;29.81;42.75;98961.13;67854;1277;1016399;-63
2023/07/11 08:08:09;;;;;;;31.60;20.50;;;;;;;30.06;42.48;98959.13;67859;1277;1016319;-64
2023/07/11 08:11:11;;;;;;;30.50;18.90;;;;;;;30.32;42.19;98965.54;67861;1277;1016284;-63
2023/07/11 08:14:14;;;;;;;29.90;18.20;;;;;;;30.01;42.70;98972.90;67879;1277;1016307;-63
2023/07/11 08:17:16;;;;;;;29.00;18.20;;;;;;;29.92;43.13;98971.87;67841;1277;1016458;-63
2023/07/11 08:20:19;;;;;;;28.30;18.00;;;;;;;29.55;43.47;98975.23;67833;1277;1016425;-64
2023/07/11 08:23:21;;;;;;;27.90;17.40;;;;;;;29.82;43.71;98977.02;67857;1277;1016537;-63
2023/07/11 08:26:23;;;;;;;29.40;18.80;;;;;;;30.00;42.84;98983.23;67885;1277;1016348;-63
2023/07/11 08:29:26;;;;;;;27.60;17.30;;;;;;;29.96;42.83;98976.09;67898;1277;1016379;-63
2023/07/11 08:32:28;;;;;;;30.40;17.80;;;;;;;30.17;43.48;98977.58;67898;1277;1016035;-63
2023/07/11 08:35:30;;;;;;;29.50;16.80;;;;;;;30.74;42.22;98974.50;67861;1277;1016312;-63
2023/07/11 08:38:33;;;;;;;29.10;16.70;;;;;;;31.32;41.72;98969.70;67833;1277;1016746;-63
2023/07/11 08:41:35;;;;;;;25.80;15.20;;;;;;;31.38;40.84;98971.89;67849;1277;1016481;-63
2023/07/11 08:44:38;;;;;;;28.40;16.20;;;;;;;31.27;40.98;98971.63;67861;1277;1018831;-64
2023/07/11 08:47:40;;;;;;;28.00;15.80;;;;;;;31.29;40.86;98967.83;67886;1277;1016754;-64
2023/07/11 08:50:45;;;;;;;29.30;17.80;;;;;;;32.16;39.63;98968.13;67862;1277;1016408;-63
2023/07/11 08:53:47;;;;;;;29.50;18.90;;;;;;;31.91;40.20;98971.35;67815;1277;1016740;-64
2023/07/11 08:56:49;;;;;;;32.10;17.90;;;;;;;31.99;40.22;98977.09;67850;1277;1016113;-64
2023/07/11 08:59:52;;;;;;;30.80;16.00;;;;;;;32.58;39.61;98976.86;67866;1277;1016391;-64
2023/07/11 09:02:55;;;;;;;28.20;16.30;;;;;;;32.43;38.77;98983.10;67877;1277;1016489;-63
2023/07/11 09:05:58;;;;;;;28.30;15.50;;;;;;;32.32;38.86;98980.80;67808;1277;1016042;-64
2023/07/11 09:09:00;;;;;;;26.00;13.90;;;;;;;32.51;38.50;98979.90;67868;1277;1016591;-64
2023/07/11 09:12:03;;;;;;;25.40;14.80;;;;;;;32.39;38.50;98983.16;67785;1277;1016505;-64
2023/07/11 09:15:05;;;;;;;25.60;14.40;;;;;;;32.57;38.36;98979.89;67858;1277;1016705;-64
2023/07/11 09:18:07;;;;;;;26.30;14.90;;;;;;;32.29;38.69;98979.64;67831;1277;1016537;-64
2023/07/11 09:21:10;;;;;;;24.90;14.20;;;;;;;32.75;38.65;98980.39;67819;1277;1019733;-64
2023/07/11 09:24:12;;;;;;;27.30;14.20;;;;;;;32.98;37.59;98987.40;67846;1277;1016413;-64
2023/07/11 09:27:15;;;;;;;24.90;13.20;;;;;;;33.23;37.43;98978.98;67863;1277;1016467;-65
2023/07/11 09:30:17;;;;;;;26.00;13.50;;;;;;;33.16;36.15;98989.17;67857;1277;1016402;-64
2023/07/11 09:33:19;;;;;;;26.90;13.10;;;;;;;33.39;36.97;98979.14;67822;1277;1016132;-64
2023/07/11 09:36:23;;;;;;;25.70;12.80;;;;;;;34.06;35.29;98978.20;67855;1277;1016459;-64
2023/07/11 09:39:25;;;;;;;22.70;11.40;;;;;;;34.20;34.98;98978.09;67847;1277;1016558;-65
2023/07/11 09:42:27;;;;;;;23.40;12.30;;;;;;;33.78;35.23;98976.98;67847;1277;1016539;-65
2023/07/11 09:45:30;;;;;;;22.80;11.20;;;;;;;33.84;35.66;98973.64;67837;1277;1018709;-65
2023/07/11 09:48:34;;;;;;;23.20;11.10;;;;;;;34.49;35.53;98961.98;67897;1277;1016413;-65
2023/07/11 09:51:36;;;;;;;21.30;10.60;;;;;;;35.00;35.37;98966.02;67903;1277;1016956;-65
2023/07/11 09:54:39;;;;;;;22.90;11.40;;;;;;;34.59;33.68;98972.55;67888;1277;1016285;-65
2023/07/11 09:57:41;;;;;;;24.20;11.40;;;;;;;34.61;34.05;98970.52;67874;1277;1017190;-65
2023/07/11 10:00:44;;;;;;;22.50;10.50;;;;;;;34.72;33.89;98971.69;67837;1277;1017619;-65
2023/07/11 10:03:47;;;;;;;22.10;10.60;;;;;;;34.46;34.64;98976.37;67877;1277;1016045;-65
2023/07/11 10:06:49;;;;;;;20.80;9.70;;;;;;;34.48;33.81;98979.02;67860;1277;1016149;-65
2023/07/11 10:09:52;;;;;;;21.20;10.00;;;;;;;34.84;33.79;98979.46;67850;1277;1019890;-65
2023/07/11 10:12:54;;;;;;;22.60;9.90;;;;;;;35.23;32.97;98979.92;67898;1277;1016251;-65
2023/07/11 10:15:57;;;;;;;22.10;9.60;;;;;;;35.41;32.38;98976.95;67898;1277;1016394;-65
2023/07/11 10:18:59;;;;;;;20.60;9.00;;;;;;;35.56;32.51;98974.41;67879;1277;1016414;-65
2023/07/11 10:22:02;;;;;;;20.40;8.60;;;;;;;35.18;32.07;98975.32;67865;1277;1016461;-65
2023/07/11 10:25:04;;;;;;;21.40;9.40;;;;;;;35.44;32.68;98972.03;67840;1277;1016383;-65
2023/07/11 10:28:08;;;;;;;22.20;8.10;;;;;;;35.69;32.22;98968.91;67882;1277;1016227;-65
2023/07/11 10:31:10;;;;;;;21.40;7.50;;;;;;;36.07;31.16;98970.05;67830;1277;1017445;-65
2023/07/11 10:34:13;;;;;;;18.70;7.90;;;;;;;36.01;30.65;98969.43;67820;1277;1016876;-66
2023/07/11 10:37:15;;;;;;;19.90;8.10;;;;;;;35.74;31.02;98976.99;67821;1277;1020046;-65
2023/07/11 10:40:18;;;;;;;18.60;7.60;;;;;;;36.14;30.60;98978.20;67836;1277;1016484;-65
2023/07/11 10:43:20;;;;;;;20.00;7.60;;;;;;;36.16;29.32;98976.20;67853;1277;1016433;-65
2023/07/11 10:46:23;;;;;;;18.90;7.70;;;;;;;36.84;30.05;98969.52;67830;1277;1016305;-66
2023/07/11 10:49:25;;;;;;;20.20;7.80;;;;;;;37.04;29.27;98962.13;67890;1277;1016531;-65
2023/07/11 10:52:30;;;;;;;21.20;8.30;;;;;;;36.58;29.60;98960.75;67864;1277;1016405;-66
2023/07/11 10:55:32;;;;;;;19.30;7.80;;;;;;;36.16;29.70;98959.92;67881;1277;1018717;-65
2023/07/11 10:58:34;;;;;;;22.20;7.60;;;;;;;36.69;29.46;98958.77;67852;1277;1016232;-65
2023/07/11 11:01:37;;;;;;;19.90;7.50;;;;;;;37.20;29.01;98960.46;67857;1277;1016492;-65
2023/07/11 11:04:39;;;;;;;18.40;7.40;;;;;;;37.22;28.90;98957.77;67821;1277;1016270;-65
2023/07/11 11:07:42;;;;;;;20.30;7.60;;;;;;;37.12;28.71;98961.63;67869;1277;1016472;-66
2023/07/11 11:10:44;;;;;;;18.20;7.30;;;;;;;36.56;29.61;98961.99;67843;1277;1016824;-66
2023/07/11 11:13:47;;;;;;;18.40;7.80;;;;;;;36.82;28.90;98964.76;67805;1277;1016313;-65
2023/07/11 11:16:49;;;;;;;18.10;7.20;;;;;;;36.88;28.37;98964.05;67842;1277;1016241;-65
2023/07/11 11:19:52;;;;;;;18.10;6.90;;;;;;;36.99;28.07;98964.56;67851;1277;1016373;-66
2023/07/11 11:22:54;;;;;;;18.70;6.60;;;;;;;36.83;28.27;98963.19;67877;1277;1016459;-66
2023/07/11 11:25:57;;;;;;;20.00;6.70;;;;;;;36.36;28.95;98960.80;67876;1277;1016888;-65
2023/07/11 11:28:59;;;;;;;18.90;7.20;;;;;;;36.59;28.91;98955.67;67838;1277;1016497;-66
2023/07/11 11:32:02;;;;;;;17.30;6.90;;;;;;;37.35;28.48;98950.60;67886;1277;1016293;-66
2023/07/11 11:35:04;;;;;;;18.10;6.90;;;;;;;37.52;27.79;98953.64;67889;1277;1016524;-65
2023/07/11 11:38:07;;;;;;;20.10;7.50;;;;;;;37.20;27.54;98954.29;67836;1277;1016409;-66
2023/07/11 11:41:09;;;;;;;18.60;6.60;;;;;;;37.27;28.28;98953.30;67862;1277;1016718;-66
2023/07/11 11:44:12;;;;;;;20.20;6.60;;;;;;;37.93;27.45;98952.77;67836;1277;1016467;-66
2023/07/11 11:47:14;;;;;;;17.70;6.00;;;;;;;38.51;27.02;98946.23;67883;1277;1018650;-66
2023/07/11 11:50:17;;;;;;;18.60;5.80;;;;;;;38.27;26.04;98953.17;67886;1277;1016470;-66
2023/07/11 11:53:19;;;;;;;18.30;6.30;;;;;;;38.15;26.38;98952.51;67855;1277;1016357;-66
2023/07/11 11:56:21;;;;;;;17.70;6.90;;;;;;;37.72;26.88;98952.06;67783;1277;1017239;-66
2023/07/11 11:59:24;;;;;;;17.50;6.30;;;;;;;37.28;26.33;98943.30;67828;1277;1016635;-67
2023/07/11 12:02:26;;;;;;;18.20;6.50;;;;;;;37.85;26.16;98939.68;67889;1277;1016279;-66
2023/07/11 12:05:29;;;;;;;16.50;6.70;;;;;;;37.29;26.56;98947.61;67917;1277;1016049;-66
2023/07/11 12:08:31;;;;;;;18.40;6.80;;;;;;;36.71;27.52;98948.94;67887;1277;1016389;-66
2023/07/11 12:11:34;;;;;;;16.70;6.50;;;;;;;36.81;27.67;98953.45;67838;1277;1016413;-65
2023/07/11 12:14:36;;;;;;;17.00;6.30;;;;;;;37.30;27.75;98944.40;67797;1277;1016397;-66
2023/07/11 12:17:39;;;;;;;18.00;6.60;;;;;;;37.96;27.35;98942.45;67893;1277;1016304;-66
2023/07/11 12:20:41;;;;;;;18.60;6.60;;;;;;;38.62;26.77;98941.59;67884;1277;1016754;-66
2023/07/11 12:23:44;;;;;;;20.00;7.20;;;;;;;38.36;26.33;98938.46;67841;1277;1019916;-66
2023/07/11 12:26:46;;;;;;;19.10;6.40;;;;;;;37.67;26.79;98940.18;67862;1277;1016784;-66
2023/07/11 12:29:48;;;;;;;18.20;6.20;;;;;;;37.70;26.21;98937.63;67856;1277;1016491;-66
2023/07/11 12:32:51;;;;;;;16.10;5.60;;;;;;;38.02;26.16;98929.05;67864;1277;1016413;-66
2023/07/11 12:35:53;;;;;;;15.00;5.20;;;;;;;38.28;24.73;98929.80;67870;1277;1016385;-66
2023/07/11 12:38:55;;;;;;;17.00;5.10;;;;;;;38.22;25.60;98929.08;67867;1277;1019250;-66
2023/07/11 12:41:58;;;;;;;17.90;5.60;;;;;;;37.81;25.16;98929.13;67838;1277;1016446;-66
2023/07/11 12:45:00;;;;;;;16.90;5.30;;;;;;;37.31;25.22;98929.96;67847;1253;1016350;-66
2023/07/11 12:48:03;;;;;;;17.40;5.20;;;;;;;36.89;25.93;98934.64;67871;1277;1016390;-66
2023/07/11 12:51:05;;;;;;;13.90;4.80;;;;;;;36.48;26.30;98930.03;67897;1277;1016027;-65
2023/07/11 12:54:08;;;;;;;17.40;5.40;;;;;;;36.88;26.98;98929.98;67862;1277;1016535;-65
2023/07/11 12:57:10;;;;;;;14.80;4.90;;;;;;;37.66;27.07;98925.51;67832;1277;1016806;-66
2023/07/11 13:00:13;;;;;;;12.80;4.90;;;;;;;38.16;26.60;98919.87;67816;1277;1018254;-66
2023/07/11 13:03:15;;;;;;;15.20;4.70;;;;;;;38.81;25.99;98915.64;67896;1277;1016694;-66
2023/07/11 13:06:17;;;;;;;13.50;4.80;;;;;;;39.48;25.07;98912.14;67895;1277;1016325;-66
2023/07/11 13:09:20;;;;;;;11.70;4.10;;;;;;;39.96;24.59;98913.73;67849;1277;1016198;-66
2023/07/11 13:12:22;;;;;;;11.40;3.40;;;;;;;39.89;22.94;98922.17;67816;1277;1016465;-66
2023/07/11 13:15:25;;;;;;;9.90;3.40;;;;;;;39.61;21.81;98919.92;67830;1277;1016914;-66
2023/07/11 13:18:27;;;;;;;10.40;3.50;;;;;;;39.44;21.87;98926.04;67887;1277;1016477;-66
2023/07/11 13:21:29;;;;;;;10.20;3.90;;;;;;;38.69;21.84;98925.34;67845;1277;1016441;-66
2023/07/11 13:24:32;;;;;;;10.20;3.90;;;;;;;38.15;22.17;98927.27;67882;1277;1016523;-66
2023/07/11 13:27:34;;;;;;;9.60;3.80;;;;;;;38.61;22.42;98919.98;67830;1276;1016806;-66
2023/07/11 13:30:36;;;;;;;8.30;3.50;;;;;;;38.06;22.71;98925.27;67860;1277;1016476;-66
2023/07/11 13:33:39;;;;;;;11.80;3.70;;;;;;;36.84;23.49;98924.67;67834;1277;1016323;-66
2023/07/11 13:36:42;;;;;;;9.90;3.70;;;;;;;36.30;24.27;98913.55;67895;1277;1016458;-66
2023/07/11 13:39:46;;;;;;;12.70;4.20;;;;;;;35.80;25.04;98914.48;67864;1277;1018628;-65
2023/07/11 13:42:48;;;;;;;11.10;4.00;;;;;;;35.99;25.88;98913.85;67828;1277;1016471;-65
2023/07/11 13:45:51;;;;;;;12.10;4.20;;;;;;;35.72;25.85;98915.37;67849;1277;1016392;-66